createdAt,value
2022-11-14T00:00:25.438Z,1.77
2022-11-14T00:02:51.806Z,1.79
2022-11-14T00:05:21.173Z,1.79
2022-11-14T00:07:48.089Z,1.72
2022-11-14T00:10:15.556Z,1.75
2022-11-14T00:12:42.071Z,1.80
2022-11-14T00:15:09.206Z,1.76
2022-11-14T00:17:35.457Z,1.74
2022-11-14T00:20:01.801Z,1.73
2022-11-14T00:22:30.987Z,1.68
2022-11-14T00:24:58.539Z,1.57
2022-11-14T00:27:26.059Z,1.51
2022-11-14T00:29:52.205Z,1.53
2022-11-14T00:32:19.112Z,1.55
2022-11-14T00:34:45.284Z,1.51
2022-11-14T00:37:11.556Z,1.45
2022-11-14T00:39:41.003Z,1.45
2022-11-14T00:42:07.763Z,1.38
2022-11-14T00:44:33.912Z,1.27
2022-11-14T00:47:00.521Z,1.23
2022-11-14T00:49:27.294Z,1.15
2022-11-14T00:51:54.775Z,1.17
2022-11-14T00:54:21.297Z,1.10
2022-11-14T00:56:51.403Z,1.07
2022-11-14T00:59:18.138Z,1.03
2022-11-14T01:01:44.497Z,1.06
2022-11-14T01:04:12.292Z,1.01
2022-11-14T01:06:39.938Z,1.11
2022-11-14T01:09:07.794Z,1.13
2022-11-14T01:11:35.227Z,1.04
2022-11-14T01:14:04.384Z,1.10
2022-11-14T01:16:31.476Z,0.93
2022-11-14T01:18:57.987Z,0.81
2022-11-14T01:21:26.195Z,0.82
2022-11-14T01:23:52.778Z,0.78
2022-11-14T01:26:19.595Z,0.82
2022-11-14T01:28:45.857Z,0.80
2022-11-14T01:31:19.689Z,0.92
2022-11-14T01:33:47.473Z,0.96
2022-11-14T01:36:14.682Z,0.96
2022-11-14T01:38:41.379Z,0.88
2022-11-14T01:41:09.359Z,0.97
2022-11-14T01:43:37.305Z,1.11
2022-11-14T01:46:05.990Z,1.07
2022-11-14T01:48:44.584Z,0.95
2022-11-14T01:51:24.997Z,0.89
2022-11-14T01:53:56.054Z,0.90
2022-11-14T01:56:30.945Z,1.01
2022-11-14T01:59:03.371Z,0.93
2022-11-14T02:01:31.735Z,0.99
2022-11-14T02:04:06.671Z,1.09
2022-11-14T02:06:34.792Z,1.12
2022-11-14T02:09:03.912Z,1.21
2022-11-14T02:11:32.891Z,1.34
2022-11-14T02:14:00.348Z,1.20
2022-11-14T02:16:27.792Z,1.18
2022-11-14T02:18:53.981Z,1.23
2022-11-14T02:21:23.030Z,1.30
2022-11-14T02:23:50.663Z,1.24
2022-11-14T02:26:20.864Z,1.23
2022-11-14T02:28:47.390Z,1.27
2022-11-14T02:31:14.351Z,1.20
2022-11-14T02:33:42.204Z,1.26
2022-11-14T02:36:10.832Z,1.17
2022-11-14T02:38:39.937Z,1.15
2022-11-14T02:41:06.957Z,1.19
2022-11-14T02:43:33.460Z,1.11
2022-11-14T02:46:04.407Z,0.96
2022-11-14T02:48:32.662Z,1.04
2022-11-14T02:50:59.054Z,1.02
2022-11-14T02:53:25.324Z,0.91
2022-11-14T02:55:54.667Z,1.03
2022-11-14T02:58:20.988Z,0.99
2022-11-14T03:01:13.431Z,0.83
2022-11-14T03:03:34.053Z,0.81
2022-11-14T03:06:02.887Z,0.76
2022-11-14T03:08:29.654Z,0.75
2022-11-14T03:10:58.840Z,0.70
2022-11-14T03:13:25.533Z,0.75
2022-11-14T03:15:51.821Z,0.64
2022-11-14T03:18:18.438Z,0.57
2022-11-14T03:20:45.038Z,0.58
2022-11-14T03:23:11.368Z,0.47
2022-11-14T03:25:39.160Z,0.44
2022-11-14T03:28:08.491Z,0.50
2022-11-14T03:30:34.916Z,0.40
2022-11-14T03:33:01.537Z,0.24
2022-11-14T03:35:30.613Z,-0.10
2022-11-14T03:37:57.000Z,-0.20
2022-11-14T03:40:42.201Z,-0.02
2022-11-14T03:43:11.436Z,-0.08
2022-11-14T03:45:41.025Z,-0.05
2022-11-14T03:48:08.059Z,0.00
2022-11-14T03:50:34.519Z,0.01
2022-11-14T03:53:01.671Z,-0.10
2022-11-14T03:55:28.513Z,-0.16
2022-11-14T03:57:55.153Z,-0.33
2022-11-14T04:00:27.556Z,-0.51
2022-11-14T04:02:54.021Z,-0.55
2022-11-14T04:05:20.779Z,-0.57
2022-11-14T04:07:47.431Z,-0.59
2022-11-14T04:10:14.791Z,-0.57
2022-11-14T04:12:41.178Z,-0.57
2022-11-14T04:15:08.412Z,-0.62
2022-11-14T04:17:39.986Z,-0.64
2022-11-14T04:20:07.421Z,-0.74
2022-11-14T04:22:33.618Z,-0.66
2022-11-14T04:25:01.189Z,-0.61
2022-11-14T04:27:28.762Z,-0.67
2022-11-14T04:29:55.224Z,-0.73
2022-11-14T04:32:21.331Z,-0.60
2022-11-14T04:34:50.528Z,-0.60
2022-11-14T04:37:16.922Z,-0.42
2022-11-14T04:39:43.576Z,-0.53
2022-11-14T04:42:14.160Z,-0.43
2022-11-14T04:44:40.669Z,-0.33
2022-11-14T04:47:07.973Z,-0.39
2022-11-14T04:49:34.523Z,-0.44
2022-11-14T04:52:03.517Z,-0.40
2022-11-14T04:54:30.262Z,-0.28
2022-11-14T04:56:57.849Z,-0.33
2022-11-14T04:59:25.390Z,-0.23
2022-11-14T05:01:51.767Z,-0.21
2022-11-14T05:04:18.494Z,-0.22
2022-11-14T05:06:44.628Z,-0.40
2022-11-14T05:09:13.536Z,-0.40
2022-11-14T05:11:39.624Z,-0.43
2022-11-14T05:14:05.890Z,-0.39
2022-11-14T05:16:33.453Z,-0.46
2022-11-14T05:18:59.919Z,-0.39
2022-11-14T05:21:27.300Z,-0.36
2022-11-14T05:23:54.084Z,-0.40
2022-11-14T05:26:23.575Z,-0.36
2022-11-14T05:28:49.649Z,-0.25
2022-11-14T05:31:18.123Z,-0.27
2022-11-14T05:33:44.730Z,-0.26
2022-11-14T05:36:13.424Z,-0.11
2022-11-14T05:38:40.195Z,-0.11
2022-11-14T05:41:09.195Z,-0.13
2022-11-14T05:43:39.077Z,-0.17
2022-11-14T05:46:08.981Z,-0.09
2022-11-14T05:48:35.322Z,0.07
2022-11-14T05:51:03.527Z,0.19
2022-11-14T05:53:31.402Z,0.30
2022-11-14T05:55:58.636Z,0.30
2022-11-14T05:58:25.202Z,0.52
2022-11-14T06:00:55.726Z,0.74
2022-11-14T06:03:22.093Z,0.76
2022-11-14T06:05:48.539Z,0.90
2022-11-14T06:08:14.825Z,1.00
2022-11-14T06:10:41.147Z,1.14
2022-11-14T06:13:07.967Z,1.11
2022-11-14T06:15:34.382Z,1.30
2022-11-14T06:18:03.323Z,1.34
2022-11-14T06:20:30.001Z,1.52
2022-11-14T06:22:58.033Z,1.53
2022-11-14T06:25:24.307Z,1.57
2022-11-14T06:27:50.839Z,1.53
2022-11-14T06:30:18.196Z,1.60
2022-11-14T06:32:44.819Z,1.70
2022-11-14T06:35:15.479Z,1.68
2022-11-14T06:37:50.288Z,1.83
2022-11-14T06:40:17.043Z,1.75
2022-11-14T06:42:45.256Z,1.65
2022-11-14T06:45:12.963Z,1.55
2022-11-14T06:47:42.835Z,1.29
2022-11-14T06:50:10.772Z,1.43
2022-11-14T06:52:39.854Z,1.52
2022-11-14T06:55:06.015Z,1.49
2022-11-14T06:57:32.543Z,1.64
2022-11-14T06:59:59.819Z,1.86
2022-11-14T07:02:26.556Z,1.77
2022-11-14T07:04:54.143Z,1.76
2022-11-14T07:07:20.460Z,1.74
2022-11-14T07:09:50.703Z,1.67
2022-11-14T07:12:18.736Z,1.75
2022-11-14T07:14:45.268Z,1.96
2022-11-14T07:17:12.060Z,1.89
2022-11-14T07:19:38.756Z,2.02
2022-11-14T07:22:05.575Z,1.88
2022-11-14T07:24:32.528Z,1.91
2022-11-14T07:27:02.255Z,1.97
2022-11-14T07:29:28.955Z,1.85
2022-11-14T07:31:55.611Z,1.80
2022-11-14T07:34:22.097Z,1.84
2022-11-14T07:36:48.792Z,1.76
2022-11-14T07:39:15.054Z,1.69
2022-11-14T07:41:41.436Z,1.86
2022-11-14T07:44:11.341Z,1.97
2022-11-14T07:46:37.868Z,2.33
2022-11-14T07:49:04.810Z,2.46
2022-11-14T07:51:31.882Z,2.60
2022-11-14T07:53:58.615Z,2.70
2022-11-14T07:56:26.152Z,2.78
2022-11-14T07:58:52.704Z,2.93
2022-11-14T08:01:21.819Z,3.01
2022-11-14T08:03:49.428Z,2.77
2022-11-14T08:06:19.126Z,2.86
2022-11-14T08:08:47.119Z,2.87
2022-11-14T08:11:23.010Z,2.84
2022-11-14T08:14:01.707Z,2.32
2022-11-14T08:16:30.784Z,2.09
2022-11-14T08:18:57.433Z,1.62
2022-11-14T08:21:23.974Z,1.61
2022-11-14T08:23:50.371Z,1.85
2022-11-14T08:26:17.131Z,2.08
2022-11-14T08:28:44.117Z,1.98
2022-11-14T08:31:11.069Z,2.13
2022-11-14T08:33:41.125Z,2.26
2022-11-14T08:36:09.794Z,2.38
2022-11-14T08:38:38.969Z,2.55
2022-11-14T08:41:07.331Z,2.72
2022-11-14T08:43:35.164Z,2.82
2022-11-14T08:46:03.269Z,3.01
2022-11-14T08:48:32.324Z,3.20
2022-11-14T08:51:05.400Z,3.29
2022-11-14T08:53:32.253Z,3.40
2022-11-14T08:55:59.025Z,3.54
2022-11-14T08:58:25.556Z,3.66
2022-11-14T09:00:53.596Z,3.55
2022-11-14T09:03:20.341Z,3.02
2022-11-14T09:05:46.731Z,2.83
2022-11-14T09:08:17.299Z,2.71
2022-11-14T09:10:44.248Z,2.70
2022-11-14T09:13:10.991Z,2.65
2022-11-14T09:15:37.766Z,2.75
2022-11-14T09:18:04.469Z,2.84
2022-11-14T09:20:34.189Z,3.05
2022-11-14T09:23:03.933Z,3.11
2022-11-14T09:25:33.731Z,3.07
2022-11-14T09:28:00.443Z,3.27
2022-11-14T09:30:26.968Z,3.21
2022-11-14T09:32:54.511Z,3.35
2022-11-14T09:35:22.127Z,3.41
2022-11-14T09:37:48.348Z,3.52
2022-11-14T09:40:16.315Z,3.64
2022-11-14T09:43:08.126Z,3.78
2022-11-14T09:45:36.497Z,3.98
2022-11-14T09:48:10.662Z,4.04
2022-11-14T09:50:43.275Z,4.19
2022-11-14T09:53:17.887Z,4.28
2022-11-14T09:55:44.697Z,4.45
2022-11-14T09:58:18.794Z,4.58
2022-11-14T10:00:53.649Z,4.65
2022-11-14T10:03:25.633Z,4.60
2022-11-14T10:06:19.028Z,4.57
2022-11-14T10:09:01.141Z,4.62
2022-11-14T10:11:36.473Z,4.72
2022-11-14T10:14:25.377Z,4.90
2022-11-14T10:17:05.243Z,5.10
2022-11-14T10:19:42.829Z,5.30
2022-11-14T10:22:21.925Z,5.44
2022-11-14T10:25:22.004Z,5.56
2022-11-14T10:28:04.989Z,5.66
2022-11-14T10:30:41.827Z,5.76
2022-11-14T10:33:20.871Z,5.95
2022-11-14T10:35:55.867Z,5.97
2022-11-14T10:38:31.102Z,6.04
2022-11-14T10:41:01.550Z,6.07
2022-11-14T10:43:33.707Z,6.12
2022-11-14T10:46:07.117Z,6.19
2022-11-14T10:48:36.608Z,6.28
2022-11-14T10:51:06.831Z,6.37
2022-11-14T10:53:47.819Z,6.47
2022-11-14T10:56:15.539Z,6.59
2022-11-14T10:58:49.057Z,6.61
2022-11-14T11:01:41.072Z,6.73
2022-11-14T11:04:32.625Z,6.86
2022-11-14T11:07:01.173Z,6.91
2022-11-14T11:09:45.491Z,7.03
2022-11-14T11:12:19.036Z,7.23
2022-11-14T11:14:46.847Z,7.47
2022-11-14T11:17:30.141Z,7.70
2022-11-14T11:20:26.814Z,8.11
2022-11-14T11:23:06.710Z,8.55
2022-11-14T11:25:34.881Z,8.85
2022-11-14T11:28:09.522Z,9.20
2022-11-14T11:30:36.351Z,9.53
2022-11-14T11:33:25.955Z,9.59
2022-11-14T11:35:55.399Z,9.58
2022-11-14T11:38:22.668Z,9.66
2022-11-14T11:40:53.780Z,9.81
2022-11-14T11:43:39.582Z,9.93
2022-11-14T11:46:14.776Z,9.92
2022-11-14T11:48:43.776Z,9.96
2022-11-14T11:51:27.165Z,10.09
2022-11-14T11:54:04.849Z,10.18
2022-11-14T11:56:35.435Z,10.10
2022-11-14T11:59:25.436Z,10.00
2022-11-14T12:01:54.968Z,10.12
2022-11-14T12:04:24.273Z,9.90
2022-11-14T12:07:00.336Z,9.84
2022-11-14T12:10:03.576Z,9.86
2022-11-14T12:12:31.085Z,9.85
2022-11-14T12:15:13.768Z,9.73
2022-11-14T12:18:11.788Z,9.72
2022-11-14T12:21:05.560Z,9.86
2022-11-14T12:24:04.176Z,9.89
2022-11-14T12:26:51.907Z,9.90
2022-11-14T12:29:41.259Z,9.96
2022-11-14T12:32:10.679Z,10.04
2022-11-14T12:34:42.267Z,10.20
2022-11-14T12:37:19.597Z,10.26
2022-11-14T12:39:45.974Z,10.51
2022-11-14T12:42:17.273Z,10.97
2022-11-14T12:44:44.067Z,11.25
2022-11-14T12:47:25.952Z,11.32
2022-11-14T12:50:22.383Z,11.52
2022-11-14T12:52:54.179Z,11.69
2022-11-14T12:55:51.482Z,11.58
2022-11-14T12:58:27.027Z,11.55
2022-11-14T13:01:11.597Z,11.67
2022-11-14T13:03:54.018Z,11.45
2022-11-14T13:06:26.977Z,11.31
2022-11-14T13:09:28.498Z,11.68
2022-11-14T13:12:07.481Z,11.44
2022-11-14T13:14:47.612Z,11.56
2022-11-14T13:17:40.145Z,11.61
2022-11-14T13:20:41.916Z,11.55
2022-11-14T13:23:08.887Z,11.45
2022-11-14T13:25:38.896Z,11.56
2022-11-14T13:28:34.801Z,11.66
2022-11-14T13:31:22.876Z,11.85
2022-11-14T13:33:51.674Z,11.88
2022-11-14T13:36:28.350Z,11.77
2022-11-14T13:39:27.771Z,11.71
2022-11-14T13:42:14.909Z,11.87
2022-11-14T13:44:58.195Z,11.85
2022-11-14T13:47:39.954Z,11.74
2022-11-14T13:50:09.441Z,11.72
2022-11-14T13:52:38.254Z,11.59
2022-11-14T13:55:06.062Z,11.59
2022-11-14T13:57:47.786Z,11.73
2022-11-14T14:00:20.436Z,11.75
2022-11-14T14:03:10.820Z,11.85
2022-11-14T14:05:51.657Z,11.77
2022-11-14T14:08:30.186Z,11.94
2022-11-14T14:11:11.040Z,11.93
2022-11-14T14:13:55.628Z,11.79
2022-11-14T14:16:34.771Z,11.71
2022-11-14T14:19:12.236Z,11.73
2022-11-14T14:21:48.204Z,11.75
2022-11-14T14:24:30.217Z,11.70
2022-11-14T14:27:18.228Z,11.63
2022-11-14T14:29:53.933Z,11.50
2022-11-14T14:32:22.463Z,11.45
2022-11-14T14:34:49.221Z,11.46
2022-11-14T14:37:21.710Z,11.57
2022-11-14T14:40:05.852Z,11.41
2022-11-14T14:43:27.478Z,11.41
2022-11-14T14:45:58.423Z,11.42
2022-11-14T14:48:29.876Z,11.36
2022-11-14T14:50:59.952Z,11.44
2022-11-14T14:53:29.991Z,11.41
2022-11-14T14:55:59.417Z,11.27
2022-11-14T14:58:33.131Z,11.21
2022-11-14T15:01:05.874Z,11.09
2022-11-14T15:03:37.126Z,11.10
2022-11-14T15:06:05.447Z,10.96
2022-11-14T15:08:34.797Z,10.89
2022-11-14T15:11:02.900Z,10.87
2022-11-14T15:13:30.472Z,10.68
2022-11-14T15:15:57.195Z,10.60
2022-11-14T15:18:29.836Z,10.62
2022-11-14T15:21:13.073Z,10.70
2022-11-14T15:23:40.649Z,10.83
2022-11-14T15:26:10.139Z,10.74
2022-11-14T15:28:36.643Z,10.82
2022-11-14T15:31:05.854Z,10.87
2022-11-14T15:33:37.509Z,10.81
2022-11-14T15:36:13.111Z,10.83
2022-11-14T15:38:44.684Z,10.85
2022-11-14T15:41:21.797Z,10.87
2022-11-14T15:43:54.047Z,10.79
2022-11-14T15:46:31.274Z,10.80
2022-11-14T15:49:00.868Z,10.76
2022-11-14T15:51:46.505Z,10.69
2022-11-14T15:54:25.274Z,10.64
2022-11-14T15:56:52.931Z,10.43
2022-11-14T15:59:19.848Z,10.25
2022-11-14T16:01:48.514Z,10.09
2022-11-14T16:04:20.537Z,10.04
2022-11-14T16:06:47.039Z,9.84
2022-11-14T16:09:18.071Z,9.75
2022-11-14T16:11:44.075Z,9.57
2022-11-14T16:14:10.443Z,9.62
2022-11-14T16:16:38.114Z,9.45
2022-11-14T16:19:04.748Z,9.35
2022-11-14T16:21:36.025Z,9.28
2022-11-14T16:24:02.195Z,9.31
2022-11-14T16:26:29.680Z,9.29
2022-11-14T16:28:57.118Z,9.30
2022-11-14T16:31:24.714Z,9.23
2022-11-14T16:33:50.901Z,9.24
2022-11-14T16:36:17.269Z,9.15
2022-11-14T16:38:51.092Z,9.07
2022-11-14T16:41:21.302Z,9.05
2022-11-14T16:43:47.828Z,8.90
2022-11-14T16:46:14.829Z,8.87
2022-11-14T16:48:41.970Z,8.77
2022-11-14T16:51:33.108Z,8.75
2022-11-14T16:54:01.558Z,8.69
2022-11-14T16:56:28.350Z,8.65
2022-11-14T16:58:57.422Z,8.64
2022-11-14T17:01:23.664Z,8.52
2022-11-14T17:03:50.594Z,8.48
2022-11-14T17:06:17.070Z,8.51
2022-11-14T17:08:43.279Z,8.57
2022-11-14T17:11:13.794Z,8.62
2022-11-14T17:13:41.572Z,8.53
2022-11-14T17:16:08.699Z,8.45
2022-11-14T17:18:38.831Z,8.49
2022-11-14T17:21:08.974Z,8.58
2022-11-14T17:23:35.382Z,8.57
2022-11-14T17:26:04.969Z,8.51
2022-11-14T17:28:34.005Z,8.42
2022-11-14T17:31:02.095Z,8.42
2022-11-14T17:33:29.132Z,8.32
2022-11-14T17:35:55.846Z,8.28
2022-11-14T17:38:22.486Z,8.31
2022-11-14T17:40:49.301Z,8.32
2022-11-14T17:43:18.160Z,8.28
2022-11-14T17:45:56.912Z,8.30
2022-11-14T17:48:23.298Z,8.38
2022-11-14T17:50:49.495Z,8.40
2022-11-14T17:53:16.285Z,8.47
2022-11-14T17:55:44.744Z,8.39
2022-11-14T17:58:10.928Z,8.34
2022-11-14T18:00:38.379Z,8.33
2022-11-14T18:03:07.886Z,8.44
2022-11-14T18:05:35.317Z,8.54
2022-11-14T18:08:03.509Z,8.58
2022-11-14T18:10:29.813Z,8.71
2022-11-14T18:12:56.606Z,8.66
2022-11-14T18:15:27.716Z,8.67
2022-11-14T18:17:54.488Z,8.85
2022-11-14T18:20:23.743Z,8.96
2022-11-14T18:22:50.104Z,8.83
2022-11-14T18:25:16.649Z,8.76
2022-11-14T18:27:43.435Z,8.75
2022-11-14T18:30:34.748Z,8.79
2022-11-14T18:32:58.497Z,8.67
2022-11-14T18:35:27.329Z,8.56
2022-11-14T18:37:53.872Z,8.54
2022-11-14T18:40:22.493Z,8.52
2022-11-14T18:42:50.612Z,8.59
2022-11-14T18:45:17.225Z,8.67
2022-11-14T18:47:43.753Z,8.63
2022-11-14T18:50:11.390Z,8.67
2022-11-14T18:52:40.191Z,8.70
2022-11-14T18:55:08.180Z,8.71
2022-11-14T18:57:35.911Z,8.71
2022-11-14T19:00:02.369Z,8.66
2022-11-14T19:02:28.792Z,8.58
2022-11-14T19:04:56.131Z,8.56
2022-11-14T19:07:22.677Z,8.48
2022-11-14T19:09:52.317Z,8.34
2022-11-14T19:12:23.619Z,8.30
2022-11-14T19:14:50.776Z,8.32
2022-11-14T19:17:20.833Z,8.32
2022-11-14T19:19:48.612Z,8.29
2022-11-14T19:22:15.392Z,8.31
2022-11-14T19:24:43.199Z,8.33
2022-11-14T19:27:12.650Z,8.29
2022-11-14T19:29:39.282Z,8.35
2022-11-14T19:32:06.236Z,8.35
2022-11-14T19:34:32.794Z,8.27
2022-11-14T19:37:00.720Z,8.26
2022-11-14T19:39:28.318Z,8.16
2022-11-14T19:41:55.169Z,8.14
2022-11-14T19:44:26.118Z,8.08
2022-11-14T19:46:52.484Z,8.01
2022-11-14T19:49:19.147Z,7.94
2022-11-14T19:51:45.384Z,7.82
2022-11-14T19:54:13.483Z,7.71
2022-11-14T19:56:40.179Z,7.71
2022-11-14T19:59:13.752Z,7.67
2022-11-14T20:01:49.679Z,7.65
2022-11-14T20:04:16.559Z,7.83
2022-11-14T20:06:44.552Z,7.78
2022-11-14T20:09:13.908Z,7.71
2022-11-14T20:11:40.914Z,7.67
2022-11-14T20:14:08.519Z,7.61
2022-11-14T20:16:37.076Z,7.68
2022-11-14T20:19:08.359Z,7.71
2022-11-14T20:21:38.473Z,7.85
2022-11-14T20:24:05.226Z,7.96
2022-11-14T20:26:32.262Z,7.95
2022-11-14T20:28:58.666Z,7.81
2022-11-14T20:31:28.483Z,7.78
2022-11-14T20:34:08.410Z,7.74
2022-11-14T20:37:08.906Z,7.61
2022-11-14T20:39:24.261Z,7.57
2022-11-14T20:41:50.487Z,7.54
2022-11-14T20:44:19.131Z,7.61
2022-11-14T20:46:46.149Z,7.69
2022-11-14T20:49:14.397Z,7.72
2022-11-14T20:51:43.672Z,7.74
2022-11-14T20:54:11.882Z,7.92
2022-11-14T20:56:38.367Z,8.11
2022-11-14T20:59:06.474Z,8.32
2022-11-14T21:01:32.998Z,8.29
2022-11-14T21:04:01.517Z,8.25
2022-11-14T21:06:30.995Z,8.32
2022-11-14T21:09:00.163Z,8.51
2022-11-14T21:11:28.875Z,8.38
2022-11-14T21:14:01.940Z,8.43
2022-11-14T21:16:33.832Z,8.46
2022-11-14T21:19:04.257Z,8.56
2022-11-14T21:21:32.812Z,8.58
2022-11-14T21:24:02.161Z,8.58
2022-11-14T21:26:34.580Z,8.63
2022-11-14T21:29:10.901Z,8.66
2022-11-14T21:31:48.720Z,8.67
2022-11-14T21:34:21.188Z,8.65
2022-11-14T21:36:48.337Z,8.65
2022-11-14T21:39:22.751Z,8.59
2022-11-14T21:41:51.110Z,8.56
2022-11-14T21:44:19.312Z,8.55
2022-11-14T21:46:49.875Z,8.57
2022-11-14T21:49:16.357Z,8.58
2022-11-14T21:51:42.565Z,8.59
2022-11-14T21:54:09.303Z,8.56
2022-11-14T21:56:39.933Z,8.51
2022-11-14T21:59:18.906Z,8.43
2022-11-14T22:01:59.623Z,8.40
2022-11-14T22:04:27.712Z,8.38
2022-11-14T22:06:54.596Z,8.37
2022-11-14T22:09:21.610Z,8.39
2022-11-14T22:11:50.901Z,8.32
2022-11-14T22:14:17.779Z,8.29
2022-11-14T22:16:45.266Z,8.23
2022-11-14T22:19:11.977Z,8.24
2022-11-14T22:21:39.812Z,8.18
2022-11-14T22:24:07.995Z,8.21
2022-11-14T22:26:35.406Z,8.26
2022-11-14T22:29:04.624Z,8.20
2022-11-14T22:31:30.971Z,8.10
2022-11-14T22:34:00.838Z,8.21
2022-11-14T22:36:29.451Z,8.15
2022-11-14T22:38:57.039Z,8.09
2022-11-14T22:41:30.678Z,8.02
2022-11-14T22:43:59.318Z,7.95
2022-11-14T22:46:28.547Z,7.87
2022-11-14T22:48:55.236Z,7.81
2022-11-14T22:51:24.949Z,7.72
2022-11-14T22:53:53.338Z,7.88
2022-11-14T22:56:21.184Z,7.84
2022-11-14T22:58:48.468Z,7.79
2022-11-14T23:01:23.797Z,7.74
2022-11-14T23:03:57.045Z,7.83
2022-11-14T23:06:23.520Z,7.87
2022-11-14T23:08:50.821Z,7.90
2022-11-14T23:11:18.555Z,7.91
2022-11-14T23:13:46.708Z,7.97
2022-11-14T23:16:13.511Z,7.97
2022-11-14T23:18:40.513Z,8.07
2022-11-14T23:21:11.790Z,8.10
2022-11-14T23:23:38.544Z,8.18
2022-11-14T23:26:09.038Z,8.20
2022-11-14T23:28:37.192Z,8.22
2022-11-14T23:31:05.522Z,8.19
2022-11-14T23:33:32.822Z,8.21
2022-11-14T23:35:59.180Z,8.18
2022-11-14T23:38:30.721Z,8.19
2022-11-14T23:40:57.729Z,8.25
2022-11-14T23:43:25.308Z,8.30
2022-11-14T23:45:51.950Z,8.29
2022-11-14T23:48:18.836Z,8.34
2022-11-14T23:50:45.148Z,8.45
2022-11-14T23:53:12.449Z,8.61
2022-11-14T23:55:42.164Z,8.55
2022-11-14T23:58:08.668Z,8.55
